Time;durP1;ratioP1;P1;durP2;ratioP2;P2;SDS_P1;SDS_P2;PMS_P1;PMS_P2;Temp;Humidity;BMP_temperature;BMP_pressure;BME280_temperature;BME280_humidity;BME280_pressure;Samples;Min_cycle;Max_cycle;Signal;HPM_P1;HPM_P2
2020/12/12 00:00:05;;;;;;;0.03;0.00;;;10.30;89.70;;;;;;4130503;27;20519;-89
2020/12/12 00:02:31;;;;;;;0.00;0.00;;;10.30;89.60;;;;;;4138750;34;20034;-89
2020/12/12 00:04:58;;;;;;;0.00;0.00;;;10.30;89.60;;;;;;4127452;34;20091;-88
2020/12/12 00:07:25;;;;;;;1.52;0.10;;;10.30;89.60;;;;;;4161227;27;20074;-89
2020/12/12 00:09:51;;;;;;;0.00;0.00;;;10.30;89.60;;;;;;4137226;34;20089;-89
2020/12/12 00:12:18;;;;;;;0.08;0.00;;;10.30;89.50;;;;;;4127008;34;20063;-90
2020/12/12 00:14:44;;;;;;;0.00;0.00;;;10.30;89.50;;;;;;4141099;27;20442;-89
2020/12/12 00:17:11;;;;;;;0.00;0.00;;;10.30;89.60;;;;;;4137751;27;20074;-90
2020/12/12 00:19:37;;;;;;;0.00;0.00;;;10.30;89.60;;;;;;4150845;27;20062;-88
2020/12/12 00:22:04;;;;;;;1.98;0.57;;;10.30;89.60;;;;;;4127148;34;20082;-91
2020/12/12 00:24:30;;;;;;;10.55;0.57;;;10.30;89.50;;;;;;4143650;27;20104;-89
2020/12/12 00:26:57;;;;;;;0.00;0.00;;;10.30;89.50;;;;;;4137172;34;20086;-89
2020/12/12 00:29:23;;;;;;;0.00;0.00;;;10.40;89.60;;;;;;4127765;34;20429;-89
2020/12/12 00:31:57;;;;;;;0.00;0.00;;;10.30;89.40;;;;;;4126338;27;20082;-88
2020/12/12 00:34:24;;;;;;;0.00;0.00;;;10.40;89.40;;;;;;4132252;27;20070;-89
2020/12/12 00:36:50;;;;;;;0.00;0.00;;;10.40;89.40;;;;;;4143120;27;20113;-87
2020/12/12 00:39:17;;;;;;;0.17;0.13;;;10.40;89.40;;;;;;4137472;34;20402;-92
2020/12/12 00:41:44;;;;;;;17.08;1.02;;;10.40;89.40;;;;;;4137865;34;20081;-89
2020/12/12 00:44:10;;;;;;;0.10;0.10;;;10.40;89.40;;;;;;4139114;34;20386;-87
2020/12/12 00:46:37;;;;;;;0.00;0.00;;;10.40;89.40;;;;;;4129581;27;20109;-87
2020/12/12 00:49:04;;;;;;;0.60;0.03;;;10.40;89.40;;;;;;4149504;27;20035;-88
2020/12/12 00:51:31;;;;;;;0.00;0.00;;;10.40;89.40;;;;;;4140917;27;20090;-89
2020/12/12 00:53:57;;;;;;;0.00;0.00;;;10.40;90.00;;;;;;4129404;34;20066;-90
2020/12/12 00:56:23;;;;;;;0.00;0.00;;;10.30;89.30;;;;;;4129232;34;20139;-90
2020/12/12 00:58:50;;;;;;;0.00;0.00;;;10.30;89.30;;;;;;4139462;27;20481;-89
2020/12/12 01:01:17;;;;;;;3.55;0.10;;;10.30;89.30;;;;;;4139900;27;20082;-89
2020/12/12 01:03:43;;;;;;;0.00;0.00;;;10.30;89.30;;;;;;4135811;27;20066;-88
2020/12/12 01:06:11;;;;;;;0.00;0.00;;;10.30;89.40;;;;;;4144226;27;20409;-89
2020/12/12 01:08:37;;;;;;;0.20;0.03;;;10.30;89.40;;;;;;4132645;27;20085;-89
2020/12/12 01:11:05;;;;;;;0.00;0.00;;;10.30;89.30;;;;;;4137065;34;20094;-89
2020/12/12 01:13:31;;;;;;;0.10;0.08;;;10.30;89.30;;;;;;4142401;27;20374;-88
2020/12/12 01:15:58;;;;;;;0.00;0.00;;;10.30;89.30;;;;;;4130431;27;20397;-90
2020/12/12 01:18:24;;;;;;;2.63;0.00;;;10.30;89.40;;;;;;4143497;27;20078;-90
2020/12/12 01:20:50;;;;;;;0.08;0.08;;;10.30;89.40;;;;;;4147293;34;20070;-90
2020/12/12 01:23:17;;;;;;;0.10;0.00;;;10.30;89.50;;;;;;4149685;27;20082;-88
2020/12/12 01:25:43;;;;;;;0.00;0.00;;;10.30;89.50;;;;;;4139597;27;20551;-89
2020/12/12 01:28:10;;;;;;;0.00;0.00;;;10.30;89.50;;;;;;4133787;27;20077;-89
2020/12/12 01:30:36;;;;;;;0.00;0.00;;;10.30;89.50;;;;;;4146454;27;20073;-89
2020/12/12 01:33:03;;;;;;;0.00;0.00;;;10.20;89.40;;;;;;4136241;34;20079;-89
2020/12/12 01:35:29;;;;;;;0.00;0.00;;;10.20;89.40;;;;;;4125393;34;20086;-87
2020/12/12 01:37:55;;;;;;;0.00;0.00;;;10.20;89.40;;;;;;4137296;34;20058;-89
2020/12/12 01:40:22;;;;;;;0.00;0.00;;;10.20;89.40;;;;;;4137340;34;20109;-89
2020/12/12 01:42:48;;;;;;;0.00;0.00;;;10.20;89.40;;;;;;4138028;34;20461;-90
2020/12/12 01:45:14;;;;;;;0.00;0.00;;;10.20;89.50;;;;;;4136301;27;20070;-89
2020/12/12 01:47:41;;;;;;;0.00;0.00;;;10.20;89.50;;;;;;4138280;27;20071;-89
2020/12/12 01:50:08;;;;;;;0.00;0.00;;;10.20;89.40;;;;;;4146750;27;20085;-89
2020/12/12 01:52:34;;;;;;;0.15;0.15;;;10.20;89.40;;;;;;4138200;34;20070;-90
2020/12/12 01:55:00;;;;;;;0.00;0.00;;;10.20;89.40;;;;;;4126315;34;20117;-88
2020/12/12 01:57:27;;;;;;;0.00;0.00;;;10.20;89.30;;;;;;4126584;34;20042;-89
2020/12/12 01:59:53;;;;;;;0.00;0.00;;;10.20;89.40;;;;;;4140293;27;20078;-88
2020/12/12 02:02:20;;;;;;;2.85;1.17;;;10.20;89.40;;;;;;4137524;27;20301;-90
2020/12/12 02:04:48;;;;;;;3.95;0.10;;;10.20;89.40;;;;;;4126586;34;20082;-90
2020/12/12 02:07:16;;;;;;;0.00;0.00;;;10.20;89.40;;;;;;4139210;27;20078;-89
2020/12/12 02:09:46;;;;;;;0.00;0.00;;;10.20;89.40;;;;;;4141693;27;20062;-90
2020/12/12 02:12:13;;;;;;;0.00;0.00;;;10.20;89.40;;;;;;4138833;34;20074;-88
2020/12/12 02:14:39;;;;;;;0.00;0.00;;;10.20;89.40;;;;;;4135119;34;20134;-88
2020/12/12 02:17:06;;;;;;;0.00;0.00;;;10.20;89.30;;;;;;4137110;27;20047;-89
2020/12/12 02:19:33;;;;;;;0.10;0.10;;;10.10;89.30;;;;;;4143992;27;20070;-90
2020/12/12 02:22:08;;;;;;;0.00;0.00;;;10.20;89.40;;;;;;4130101;27;20070;-90
2020/12/12 02:24:35;;;;;;;0.00;0.00;;;10.20;89.40;;;;;;4144700;27;20059;-89
2020/12/12 02:27:05;;;;;;;0.00;0.00;;;10.10;89.20;;;;;;4153643;26;20066;-88
2020/12/12 02:29:47;;;;;;;0.00;0.00;;;10.10;89.20;;;;;;4124818;34;20089;-88
2020/12/12 02:32:13;;;;;;;0.00;0.00;;;10.10;89.20;;;;;;4128594;27;20070;-88
2020/12/12 02:34:40;;;;;;;0.00;0.00;;;10.10;89.20;;;;;;4137079;34;20081;-90
2020/12/12 02:37:07;;;;;;;0.00;0.00;;;10.10;89.20;;;;;;4128643;34;20074;-89
2020/12/12 02:39:33;;;;;;;0.00;0.00;;;10.10;89.20;;;;;;4141727;27;20078;-90
2020/12/12 02:41:59;;;;;;;0.52;0.20;;;10.10;89.20;;;;;;4136748;34;20062;-90
2020/12/12 02:44:26;;;;;;;0.00;0.00;;;10.10;89.20;;;;;;4125623;27;20421;-91
2020/12/12 02:46:53;;;;;;;0.73;0.05;;;10.10;89.20;;;;;;4128125;27;20075;-89
2020/12/12 02:49:19;;;;;;;0.00;0.00;;;10.10;89.30;;;;;;4131245;27;20449;-89
2020/12/12 02:51:45;;;;;;;0.00;0.00;;;10.10;89.40;;;;;;4136923;34;20078;-89
2020/12/12 02:54:12;;;;;;;0.00;0.00;;;10.00;89.30;;;;;;4126610;34;20513;-91
2020/12/12 02:56:38;;;;;;;0.00;0.00;;;10.00;89.40;;;;;;4141615;27;20070;-89
2020/12/12 02:59:05;;;;;;;3.13;0.30;;;10.00;89.30;;;;;;4136869;34;20090;-89
2020/12/12 03:01:48;;;;;;;0.00;0.00;;;10.00;89.30;;;;;;4156579;27;20070;-88
2020/12/12 03:04:17;;;;;;;0.00;0.00;;;10.00;89.40;;;;;;4157525;27;20078;-89
2020/12/12 03:06:44;;;;;;;0.08;0.00;;;10.00;89.40;;;;;;4138239;27;20093;-89
2020/12/12 03:09:11;;;;;;;0.55;0.10;;;10.00;89.40;;;;;;4127481;34;20129;-89
2020/12/12 03:11:37;;;;;;;0.00;0.00;;;10.00;89.30;;;;;;4138386;27;20074;-88
2020/12/12 03:14:04;;;;;;;0.00;0.00;;;9.90;89.20;;;;;;4141066;27;20077;-88
2020/12/12 03:16:30;;;;;;;0.00;0.00;;;10.00;89.30;;;;;;4136915;27;20106;-90
2020/12/12 03:18:56;;;;;;;0.00;0.00;;;10.00;89.30;;;;;;4127148;34;20446;-89
2020/12/12 03:21:23;;;;;;;0.22;0.03;;;10.00;89.20;;;;;;4127676;34;20078;-88
2020/12/12 03:23:49;;;;;;;0.00;0.00;;;10.00;89.20;;;;;;4154788;27;20070;-89
2020/12/12 03:26:16;;;;;;;0.00;0.00;;;10.00;89.20;;;;;;4128326;26;20824;-90
2020/12/12 03:28:42;;;;;;;0.40;0.00;;;10.00;89.20;;;;;;4136750;27;20050;-89
2020/12/12 03:31:08;;;;;;;0.00;0.00;;;10.00;89.10;;;;;;4148638;27;20074;-87
2020/12/12 03:33:35;;;;;;;0.00;0.00;;;10.00;89.20;;;;;;4137126;34;20039;-89
2020/12/12 03:36:04;;;;;;;0.00;0.00;;;10.00;89.20;;;;;;4127145;34;20042;-89
2020/12/12 03:38:30;;;;;;;0.00;0.00;;;9.90;89.10;;;;;;4127969;34;20108;-89
2020/12/12 03:40:56;;;;;;;0.00;0.00;;;9.90;89.10;;;;;;4127981;34;20062;-89
2020/12/12 03:43:24;;;;;;;0.00;0.00;;;9.90;89.10;;;;;;4137327;34;20085;-89
2020/12/12 03:45:51;;;;;;;0.00;0.00;;;9.90;89.20;;;;;;4146047;27;20078;-89
2020/12/12 03:48:17;;;;;;;0.20;0.20;;;9.90;89.20;;;;;;4143811;27;20054;-90
2020/12/12 03:50:44;;;;;;;0.00;0.00;;;9.90;89.30;;;;;;4137512;34;20410;-89
2020/12/12 03:53:10;;;;;;;0.00;0.00;;;9.90;89.30;;;;;;4144672;27;20090;-89
2020/12/12 03:55:37;;;;;;;0.00;0.00;;;9.80;90.00;;;;;;4131113;27;20109;-87
2020/12/12 03:58:04;;;;;;;0.00;0.00;;;9.80;89.30;;;;;;4146334;27;20085;-89
2020/12/12 04:00:30;;;;;;;0.17;0.10;;;9.80;89.30;;;;;;4167082;26;20187;-90
2020/12/12 04:02:56;;;;;;;0.00;0.00;;;9.80;89.30;;;;;;4126781;34;20074;-89
2020/12/12 04:05:23;;;;;;;0.75;0.10;;;9.80;89.30;;;;;;4162135;27;20078;-90
2020/12/12 04:07:49;;;;;;;3.58;0.30;;;9.80;89.40;;;;;;4133847;27;20074;-88
2020/12/12 04:10:15;;;;;;;0.00;0.00;;;9.70;89.30;;;;;;4126628;34;20074;-88
2020/12/12 04:12:42;;;;;;;0.00;0.00;;;9.70;89.40;;;;;;4137342;34;20110;-88
2020/12/12 04:15:08;;;;;;;0.00;0.00;;;9.70;89.40;;;;;;4138478;27;20078;-90
2020/12/12 04:17:34;;;;;;;0.55;0.08;;;9.70;89.40;;;;;;4127073;34;20046;-90
2020/12/12 04:20:01;;;;;;;0.00;0.00;;;9.70;89.40;;;;;;4128951;34;20074;-91
2020/12/12 04:22:27;;;;;;;3.20;0.63;;;9.70;89.40;;;;;;4144510;27;20085;-90
2020/12/12 04:24:54;;;;;;;0.00;0.00;;;9.70;89.40;;;;;;4128636;34;20438;-88
2020/12/12 04:27:20;;;;;;;0.00;0.00;;;9.70;89.40;;;;;;4129241;27;20128;-90
2020/12/12 04:29:47;;;;;;;0.30;0.20;;;9.70;89.40;;;;;;4159739;27;20074;-90
2020/12/12 04:32:13;;;;;;;3.05;0.15;;;9.70;89.30;;;;;;4141265;27;20074;-90
2020/12/12 04:34:39;;;;;;;0.00;0.00;;;9.70;89.30;;;;;;4128173;34;20066;-90
2020/12/12 04:37:06;;;;;;;0.00;0.00;;;9.70;89.40;;;;;;4139664;34;20078;-89
2020/12/12 04:39:32;;;;;;;4.75;0.32;;;9.70;89.30;;;;;;4144574;27;20077;-89
2020/12/12 04:41:59;;;;;;;0.00;0.00;;;9.60;89.20;;;;;;4129251;34;20438;-90
2020/12/12 04:44:25;;;;;;;0.00;0.00;;;9.60;89.20;;;;;;4140563;27;20383;-88
2020/12/12 04:46:51;;;;;;;0.00;0.00;;;9.60;89.20;;;;;;4137085;27;20078;-89
2020/12/12 04:49:18;;;;;;;0.95;0.08;;;9.60;89.20;;;;;;4128441;34;20093;-88
2020/12/12 04:51:47;;;;;;;0.00;0.00;;;9.60;89.20;;;;;;4153580;27;20074;-91
2020/12/12 04:54:18;;;;;;;0.00;0.00;;;9.60;89.30;;;;;;4134197;34;20070;-89
2020/12/12 04:56:46;;;;;;;0.00;0.00;;;9.60;89.30;;;;;;4134194;34;20387;-89
2020/12/12 04:59:13;;;;;;;0.15;0.10;;;9.60;89.30;;;;;;4133865;27;20469;-88
2020/12/12 05:01:40;;;;;;;0.10;0.10;;;9.60;89.30;;;;;;4137479;27;20078;-88
2020/12/12 05:04:07;;;;;;;0.85;0.05;;;9.60;89.30;;;;;;4133346;34;20074;-87
2020/12/12 05:06:33;;;;;;;0.20;0.20;;;9.60;89.40;;;;;;4122402;27;20091;-88
2020/12/12 05:09:00;;;;;;;0.00;0.00;;;9.50;89.30;;;;;;4131294;27;20082;-89
2020/12/12 05:11:26;;;;;;;0.32;0.22;;;9.50;89.20;;;;;;4145809;27;20490;-89
2020/12/12 05:13:53;;;;;;;0.47;0.10;;;9.50;89.30;;;;;;4123532;27;20082;-89
2020/12/12 05:16:19;;;;;;;0.00;0.00;;;9.50;89.30;;;;;;4146555;27;20089;-88
2020/12/12 05:18:46;;;;;;;0.00;0.00;;;9.50;89.20;;;;;;4125750;27;20074;-88
2020/12/12 05:21:12;;;;;;;0.00;0.00;;;9.50;89.30;;;;;;4134309;27;20074;-88
2020/12/12 05:23:39;;;;;;;0.00;0.00;;;9.50;89.20;;;;;;4134675;34;20070;-89
2020/12/12 05:26:05;;;;;;;0.00;0.00;;;9.50;89.20;;;;;;4124134;27;20074;-88
2020/12/12 05:28:32;;;;;;;0.00;0.00;;;9.50;89.20;;;;;;4126897;27;20073;-89
2020/12/12 05:30:58;;;;;;;0.08;0.00;;;9.50;89.20;;;;;;4121373;27;20401;-89
2020/12/12 05:33:25;;;;;;;0.00;0.00;;;9.50;89.20;;;;;;4133384;27;20046;-89
2020/12/12 05:35:52;;;;;;;0.00;0.00;;;9.50;89.20;;;;;;4116945;27;20078;-89
2020/12/12 05:38:19;;;;;;;0.00;0.00;;;9.50;89.20;;;;;;4126043;34;20082;-89
2020/12/12 05:40:49;;;;;;;0.10;0.00;;;9.50;89.20;;;;;;4124186;34;20070;-88
2020/12/12 05:43:16;;;;;;;0.00;0.00;;;9.50;89.20;;;;;;4109199;34;20411;-87
2020/12/12 05:45:42;;;;;;;0.00;0.00;;;9.40;89.10;;;;;;4132725;27;20093;-88
2020/12/12 05:48:09;;;;;;;0.20;0.08;;;9.40;89.10;;;;;;4131741;34;20383;-88
2020/12/12 05:50:35;;;;;;;0.00;0.00;;;9.40;89.10;;;;;;4125839;34;20416;-88
2020/12/12 05:53:02;;;;;;;0.28;0.17;;;9.40;89.10;;;;;;4126231;34;20089;-89
2020/12/12 05:55:32;;;;;;;0.00;0.00;;;9.40;89.10;;;;;;4120472;27;20122;-90
2020/12/12 05:57:59;;;;;;;0.00;0.00;;;9.40;89.10;;;;;;4128464;27;20074;-87
2020/12/12 06:00:27;;;;;;;0.00;0.00;;;9.30;89.20;;;;;;4125659;27;20082;-88
2020/12/12 06:02:58;;;;;;;0.00;0.00;;;9.30;89.10;;;;;;4113640;34;20070;-87
2020/12/12 06:05:28;;;;;;;0.00;0.00;;;9.30;89.20;;;;;;4125458;27;20114;-89
2020/12/12 06:07:56;;;;;;;0.63;0.15;;;9.30;89.30;;;;;;4110244;34;20078;-88
2020/12/12 06:10:30;;;;;;;1.95;0.13;;;9.20;89.30;;;;;;4133723;34;20094;-87
2020/12/12 06:13:01;;;;;;;0.00;0.00;;;9.20;89.30;;;;;;4135974;27;20470;-87
2020/12/12 06:15:37;;;;;;;;;;;9.20;89.40;;;;;;4160676;26;20035;-86
2020/12/12 06:18:31;;;;;;;0.05;0.05;;;9.20;89.30;;;;;;4122680;34;20310;-89
2020/12/12 06:20:58;;;;;;;0.00;0.00;;;9.10;89.20;;;;;;4137713;27;20074;-87
2020/12/12 06:23:25;;;;;;;0.00;0.00;;;9.10;89.30;;;;;;4110917;27;20078;-87
2020/12/12 06:25:51;;;;;;;0.28;0.20;;;9.10;89.40;;;;;;4124064;34;20077;-88
2020/12/12 06:28:24;;;;;;;0.35;0.10;;;9.00;89.30;;;;;;4123925;34;20101;-89
2020/12/12 06:30:50;;;;;;;0.00;0.00;;;9.00;89.40;;;;;;4130073;27;20070;-89
2020/12/12 06:33:17;;;;;;;0.00;0.00;;;9.00;89.50;;;;;;4134675;34;20035;-87
2020/12/12 06:35:43;;;;;;;2.33;0.15;;;9.00;89.50;;;;;;4147374;27;20473;-89
2020/12/12 06:38:19;;;;;;;4.22;0.65;;;9.00;89.50;;;;;;4113512;34;20078;-89
2020/12/12 06:40:46;;;;;;;8.88;0.40;;;8.90;89.50;;;;;;4144344;27;20035;-89
2020/12/12 06:43:42;;;;;;;0.00;0.00;;;8.90;89.60;;;;;;4125231;34;20074;-88
2020/12/12 06:46:08;;;;;;;0.20;0.00;;;8.90;89.70;;;;;;4114735;27;20039;-87
2020/12/12 06:48:36;;;;;;;2.45;0.22;;;8.80;89.70;;;;;;4135809;34;20397;-88
2020/12/12 06:51:02;;;;;;;0.00;0.00;;;8.80;89.70;;;;;;4150926;26;20082;-87
2020/12/12 06:53:30;;;;;;;0.00;0.00;;;8.80;89.80;;;;;;4128189;27;20081;-87
2020/12/12 06:56:15;;;;;;;0.03;0.03;;;8.70;89.80;;;;;;4123909;34;20074;-86
2020/12/12 06:58:42;;;;;;;0.00;0.00;;;8.70;89.90;;;;;;4143657;27;20090;-86
2020/12/12 07:01:28;;;;;;;10.20;0.22;;;8.60;89.90;;;;;;4125746;27;20066;-88
2020/12/12 07:03:58;;;;;;;0.00;0.00;;;8.60;90.00;;;;;;4135915;34;20066;-88
2020/12/12 07:06:28;;;;;;;3.63;0.45;;;8.60;90.00;;;;;;4128055;34;20570;-87
2020/12/12 07:08:58;;;;;;;0.00;0.00;;;8.50;90.00;;;;;;4131506;27;20086;-89
2020/12/12 07:11:26;;;;;;;0.00;0.00;;;8.50;90.10;;;;;;4124669;34;20054;-87
2020/12/12 07:13:53;;;;;;;0.00;0.00;;;8.50;90.10;;;;;;4125472;27;20090;-87
2020/12/12 07:16:20;;;;;;;0.00;0.00;;;8.40;90.10;;;;;;4126353;27;20082;-88
2020/12/12 07:18:48;;;;;;;6.03;0.15;;;8.40;90.10;;;;;;4128134;34;20066;-88
2020/12/12 07:21:15;;;;;;;0.00;0.00;;;8.40;90.20;;;;;;4128609;34;20070;-88
2020/12/12 07:23:41;;;;;;;0.00;0.00;;;8.40;90.10;;;;;;4127352;34;20106;-88
2020/12/12 07:26:07;;;;;;;2.75;0.85;;;8.40;90.10;;;;;;4116726;34;20410;-88
2020/12/12 07:28:51;;;;;;;0.00;0.00;;;8.30;90.10;;;;;;4119781;34;20355;-89
2020/12/12 07:31:18;;;;;;;0.00;0.00;;;8.30;90.10;;;;;;4133883;27;20504;-88
2020/12/12 07:34:03;;;;;;;0.00;0.00;;;8.20;90.20;;;;;;4133148;27;20050;-89
2020/12/12 07:36:32;;;;;;;0.00;0.00;;;8.20;90.30;;;;;;4144139;27;20416;-87
2020/12/12 07:38:59;;;;;;;0.05;0.05;;;8.10;90.30;;;;;;4122653;27;20050;-88
2020/12/12 07:41:25;;;;;;;0.00;0.00;;;8.10;90.30;;;;;;4119583;34;20042;-89
2020/12/12 07:43:53;;;;;;;0.00;0.00;;;8.10;90.30;;;;;;4131197;34;20100;-89
2020/12/12 07:46:40;;;;;;;0.20;0.10;;;8.10;90.30;;;;;;4129707;27;20061;-90
2020/12/12 07:49:23;;;;;;;;;;;;;;;;;;;;;
2020/12/12 07:52:20;;;;;;;1.20;0.55;;;7.90;90.30;;;;;;4175465;27;20446;-90
2020/12/12 07:55:11;;;;;;;0.15;0.08;;;8.00;90.30;;;;;;4140022;27;20051;-88
2020/12/12 07:57:59;;;;;;;;;;;;;;;;;;;;;
2020/12/12 08:00:56;;;;;;;2.38;0.10;;;7.90;90.30;;;;;;4149721;27;20058;-88
2020/12/12 08:03:23;;;;;;;0.00;0.00;;;8.00;90.30;;;;;;4207903;27;20081;-90
2020/12/12 08:06:09;;;;;;;4.32;0.10;;;8.00;90.30;;;;;;4176948;27;20072;-89
2020/12/12 08:08:36;;;;;;;0.00;0.00;;;7.90;90.20;;;;;;4138645;34;20081;-89
2020/12/12 08:11:04;;;;;;;0.00;0.00;;;7.90;90.20;;;;;;4138639;34;20532;-88
2020/12/12 08:13:30;;;;;;;0.00;0.00;;;7.90;90.20;;;;;;4137012;27;20055;-89
2020/12/12 08:16:10;;;;;;;0.00;0.00;;;7.90;90.20;;;;;;4132410;27;20034;-87
2020/12/12 08:18:36;;;;;;;0.00;0.00;;;8.00;90.20;;;;;;4147683;34;20066;-90
2020/12/12 08:21:13;;;;;;;0.00;0.00;;;7.90;90.20;;;;;;4146314;27;20069;-89
2020/12/12 08:23:40;;;;;;;0.00;0.00;;;8.00;90.10;;;;;;4134701;34;20066;-87
2020/12/12 08:26:07;;;;;;;4.75;0.25;;;8.00;90.10;;;;;;4144562;34;20074;-88
2020/12/12 08:28:33;;;;;;;0.00;0.00;;;8.00;90.10;;;;;;4138336;34;20042;-86
2020/12/12 08:31:15;;;;;;;0.00;0.00;;;8.00;90.10;;;;;;4140185;27;20081;-88
2020/12/12 08:33:43;;;;;;;3.92;0.55;;;8.00;90.10;;;;;;4140565;34;20074;-88
2020/12/12 08:36:17;;;;;;;0.35;0.10;;;8.00;90.10;;;;;;4129097;34;20375;-89
2020/12/12 08:38:50;;;;;;;0.32;0.10;;;8.00;90.00;;;;;;4136878;27;20078;-87
2020/12/12 08:41:16;;;;;;;1.42;0.70;;;8.00;90.00;;;;;;4141284;27;20058;-89
2020/12/12 08:43:44;;;;;;;0.00;0.00;;;8.00;90.00;;;;;;4170374;27;20078;-88
2020/12/12 08:46:15;;;;;;;0.00;0.00;;;8.10;89.90;;;;;;4139952;27;20099;-89
2020/12/12 08:48:41;;;;;;;0.13;0.10;;;8.20;89.70;;;;;;4139215;34;20078;-89
2020/12/12 08:51:08;;;;;;;0.00;0.00;;;8.20;89.60;;;;;;4130564;34;20074;-91
2020/12/12 08:53:41;;;;;;;0.28;0.22;;;8.20;89.50;;;;;;4130602;34;20058;-90
2020/12/12 08:57:31;;;;;;;0.00;0.00;;;8.20;89.30;;;;;;4152993;27;20446;-88
2020/12/12 09:00:02;;;;;;;0.00;0.00;;;8.30;89.20;;;;;;4144465;34;20046;-89
2020/12/12 09:02:28;;;;;;;0.00;0.00;;;8.40;89.00;;;;;;4138729;27;20054;-87
2020/12/12 09:05:21;;;;;;;0.00;0.00;;;8.40;88.90;;;;;;4148620;27;20054;-89
2020/12/12 09:07:50;;;;;;;0.00;0.00;;;8.40;88.70;;;;;;4141893;34;20039;-89
2020/12/12 09:10:17;;;;;;;0.45;0.20;;;8.50;88.60;;;;;;4162087;27;20074;-87
2020/12/12 09:12:46;;;;;;;0.00;0.00;;;8.60;88.50;;;;;;4156949;34;20047;-89
2020/12/12 09:28:39;;;;;;;0.90;0.30;;;8.90;87.70;;;;;;4103985;27;20118;31
2020/12/12 09:31:06;;;;;;;0.38;0.22;;;9.00;87.50;;;;;;4098510;34;20039;-88
2020/12/12 09:33:35;;;;;;;0.25;0.13;;;9.00;87.30;;;;;;4110179;27;20075;-89
2020/12/12 09:44:25;;;;;;;0.00;0.00;;;9.30;86.90;;;;;;4144555;34;20061;-90
2020/12/12 09:46:51;;;;;;;0.00;0.00;;;9.30;86.60;;;;;;4196329;27;20050;-88
2020/12/12 09:49:17;;;;;;;0.10;0.10;;;9.40;86.50;;;;;;4134493;34;20058;-89
2020/12/12 09:51:47;;;;;;;0.00;0.00;;;9.40;86.30;;;;;;4148788;34;20062;-90
2020/12/12 09:54:18;;;;;;;0.10;0.00;;;9.50;86.20;;;;;;4165926;27;20101;-90
2020/12/12 09:56:47;;;;;;;0.00;0.00;;;9.60;86.10;;;;;;4150570;34;20081;-88
2020/12/12 10:23:33;;;;;;;0.40;0.40;;;10.50;84.00;;;;;;4103603;34;20097;-88
2020/12/12 10:52:11;;;;;;;0.00;0.00;;;11.10;82.90;;;;;;4181809;27;20488;-89
2020/12/12 10:54:39;;;;;;;0.00;0.00;;;11.20;82.50;;;;;;4122474;34;20070;-89
2020/12/12 10:57:05;;;;;;;0.00;0.00;;;11.10;82.50;;;;;;4128646;34;20481;-89
2020/12/12 10:59:32;;;;;;;0.00;0.00;;;11.10;82.70;;;;;;4166130;27;20098;-90
2020/12/12 11:02:01;;;;;;;0.05;0.05;;;11.10;83.00;;;;;;4132442;27;20046;-89
2020/12/12 11:04:27;;;;;;;1.10;1.10;;;11.20;82.80;;;;;;4130372;27;20085;-90
2020/12/12 11:24:08;;;;;;;;;;;;;;;;;;;;;
2020/12/12 11:26:35;;;;;;;0.00;0.00;;;12.30;79.90;;;;;;4134909;27;20075;-89
2020/12/12 11:29:02;;;;;;;0.40;0.20;;;12.40;79.80;;;;;;4114132;27;20489;-91
2020/12/12 11:32:38;;;;;;;;;;;;;;;;;;;;;
2020/12/12 11:50:00;;;;;;;0.17;0.05;;;12.50;79.40;;;;;;4142673;27;20232;-91
2020/12/12 11:53:06;;;;;;;0.00;0.00;;;12.70;79.00;;;;;;4127269;27;20082;-88
2020/12/12 12:05:56;;;;;;;0.00;0.00;;;12.60;79.10;;;;;;4072752;28;20091;-88
2020/12/12 12:11:35;;;;;;;0.05;0.03;;;12.60;78.80;;;;;;4114552;34;20090;-91
2020/12/12 12:14:05;;;;;;;0.80;0.13;;;12.60;79.10;;;;;;4117334;27;20426;-89
2020/12/12 12:16:52;;;;;;;0.03;0.00;;;12.50;79.00;;;;;;4134630;27;20070;-88
2020/12/12 12:19:21;;;;;;;0.00;0.00;;;12.50;79.40;;;;;;4105484;34;20110;-89
2020/12/12 12:21:48;;;;;;;0.03;0.03;;;12.60;79.40;;;;;;4132852;27;20054;-91
2020/12/12 12:24:16;;;;;;;0.00;0.00;;;12.60;79.20;;;;;;4113446;27;20439;-88
2020/12/12 12:26:48;;;;;;;1.27;0.10;;;12.60;78.90;;;;;;4115658;34;20074;-88
2020/12/12 12:30:16;;;;;;;;;;;;;;;;;;;;;
2020/12/12 12:32:54;;;;;;;0.00;0.00;;;12.60;78.90;;;;;;4131085;28;20046;-88
2020/12/12 12:35:23;;;;;;;0.00;0.00;;;12.50;79.10;;;;;;4102418;27;20069;-88
2020/12/12 12:37:57;;;;;;;0.00;0.00;;;12.60;79.10;;;;;;4113513;34;20055;-90
2020/12/12 12:44:41;;;;;;;;;;;;;;;;;;;;;
2020/12/12 12:48:04;;;;;;;;;;;;;;;;;;;;;
2020/12/12 13:27:20;;;;;;;0.00;0.00;;;12.70;77.60;;;;;;4143258;27;20100;-89
2020/12/12 13:41:36;;;;;;;0.00;0.00;;;12.50;77.80;;;;;;4135792;27;20086;-88
2020/12/12 13:48:56;;;;;;;0.00;0.00;;;12.60;77.20;;;;;;4048721;35;20088;-89
2020/12/12 13:51:52;;;;;;;0.20;0.20;;;12.60;76.90;;;;;;3996703;35;20749;-89
2020/12/12 13:55:33;;;;;;;;;;;;;;;;;;;;;
2020/12/12 14:22:57;;;;;;;;;;;;;;;;;;;;;
2020/12/12 17:26:00;;;;;;;;;;;;;;;;;;;;;
2020/12/12 19:18:04;;;;;;;0.10;0.08;;;7.60;85.90;;;;;;4146883;34;20402;-90
2020/12/12 19:20:41;;;;;;;;;;;;;;;;;;;;;
2020/12/12 19:23:08;;;;;;;0.50;0.25;;;7.60;85.90;;;;;;4115886;27;20466;-89
2020/12/12 19:44:39;;;;;;;;;;;;;;;;;;;;;
2020/12/12 20:02:04;;;;;;;0.20;0.10;;;7.30;86.00;;;;;;4109157;27;20067;-90
2020/12/12 20:04:30;;;;;;;0.30;0.10;;;7.30;86.00;;;;;;4123892;34;20082;-89
2020/12/12 20:19:09;;;;;;;0.60;0.50;;;7.20;86.00;;;;;;4131283;27;20071;-90
2020/12/12 20:21:45;;;;;;;1.97;0.63;;;7.20;86.20;;;;;;4116018;27;20054;-90
2020/12/12 20:24:29;;;;;;;0.73;0.47;;;7.10;86.20;;;;;;4115506;34;20066;-90
2020/12/12 20:27:10;;;;;;;0.80;0.40;;;7.10;86.30;;;;;;4111520;35;20087;-89
2020/12/12 20:50:00;;;;;;;;;;;;;;;;;;;;;
2020/12/12 20:53:29;;;;;;;;;;;;;;;;;;;;;
2020/12/12 21:03:12;;;;;;;;;;;;;;;;;;;;;
2020/12/12 21:06:30;;;;;;;0.30;0.25;;;6.70;86.80;;;;;;4048853;35;20052;-91
2020/12/12 21:09:07;;;;;;;4.88;0.43;;;6.70;87.00;;;;;;4047646;35;20056;-90
